createdAt,value
2023-04-28T00:00:39.671Z,101335.75
2023-04-28T00:03:07.780Z,101335.06
2023-04-28T00:05:35.892Z,101325.44
2023-04-28T00:08:04.084Z,101320.84
2023-04-28T00:10:31.965Z,101329.78
2023-04-28T00:13:00.664Z,101321.34
2023-04-28T00:15:28.241Z,101322.84
2023-04-28T00:17:55.942Z,101324.88
2023-04-28T00:20:23.488Z,101309.91
2023-04-28T00:22:51.141Z,101314.22
2023-04-28T00:25:18.718Z,101306.13
2023-04-28T00:27:46.778Z,101305.66
2023-04-28T00:30:14.635Z,101301.41
2023-04-28T00:32:42.775Z,101305.31
2023-04-28T00:35:10.920Z,101311.72
2023-04-28T00:37:39.564Z,101308.34
2023-04-28T00:40:08.421Z,101305.66
2023-04-28T00:42:36.033Z,101306.63
2023-04-28T00:45:07.287Z,101311.19
2023-04-28T00:47:35.666Z,101316.66
2023-04-28T00:50:09.044Z,101312.53
2023-04-28T00:52:38.532Z,101319.81
2023-04-28T00:55:07.915Z,101324.88
2023-04-28T00:57:36.719Z,101313.94
2023-04-28T01:00:04.909Z,101314.44
2023-04-28T01:02:32.836Z,101321.16
2023-04-28T01:05:02.668Z,101308.22
2023-04-28T01:07:31.193Z,101314.19
2023-04-28T01:09:58.820Z,101315.97
2023-04-28T01:12:31.210Z,101312.59
2023-04-28T01:14:59.853Z,101306.50
2023-04-28T01:17:28.600Z,101299.31
2023-04-28T01:19:56.642Z,101306.06
2023-04-28T01:22:25.142Z,101302.13
2023-04-28T01:24:52.773Z,101307.84
2023-04-28T01:27:20.933Z,101304.56
2023-04-28T01:29:48.837Z,101301.72
2023-04-28T01:32:16.574Z,101296.72
2023-04-28T01:34:44.197Z,101302.78
2023-04-28T01:37:11.986Z,101303.25
2023-04-28T01:39:39.521Z,101304.81
2023-04-28T01:42:07.646Z,101307.97
2023-04-28T01:44:35.338Z,101310.16
2023-04-28T01:47:03.417Z,101301.94
2023-04-28T01:49:30.956Z,101300.91
2023-04-28T01:51:58.537Z,101312.38
2023-04-28T01:54:27.530Z,101319.34
2023-04-28T01:56:55.445Z,101319.25
2023-04-28T01:59:23.373Z,101323.72
2023-04-28T02:01:51.425Z,101330.44
2023-04-28T02:04:19.809Z,101331.00
2023-04-28T02:06:47.704Z,101334.88
2023-04-28T02:09:15.507Z,101338.25
2023-04-28T02:11:43.083Z,101336.38
2023-04-28T02:14:10.790Z,101337.66
2023-04-28T02:16:38.362Z,101340.00
2023-04-28T02:19:06.462Z,101347.75
2023-04-28T02:21:34.182Z,101345.81
2023-04-28T02:24:02.179Z,101339.66
2023-04-28T02:26:33.906Z,101327.66
2023-04-28T02:29:04.202Z,101325.28
2023-04-28T02:31:33.956Z,101329.84
2023-04-28T02:34:01.807Z,101337.13
2023-04-28T02:36:29.881Z,101337.16
2023-04-28T02:38:58.384Z,101339.56
2023-04-28T02:41:30.215Z,101336.47
2023-04-28T02:43:57.985Z,101341.19
2023-04-28T02:46:25.883Z,101338.09
2023-04-28T02:48:53.925Z,101332.81
2023-04-28T02:51:22.275Z,101339.22
2023-04-28T02:53:50.504Z,101337.63
2023-04-28T02:56:18.166Z,101343.91
2023-04-28T02:58:46.358Z,101343.72
2023-04-28T03:01:14.467Z,101343.31
2023-04-28T03:03:42.143Z,101343.59
2023-04-28T03:06:10.392Z,101352.16
2023-04-28T03:08:37.972Z,101351.22
2023-04-28T03:11:06.721Z,101360.41
2023-04-28T03:13:35.962Z,101357.22
2023-04-28T03:16:03.976Z,101363.59
2023-04-28T03:18:31.550Z,101374.31
2023-04-28T03:20:59.750Z,101380.31
2023-04-28T03:23:29.565Z,101386.31
2023-04-28T03:25:57.659Z,101373.75
2023-04-28T03:28:26.499Z,101369.81
2023-04-28T03:30:54.428Z,101360.50
2023-04-28T03:33:22.549Z,101354.28
2023-04-28T03:35:50.520Z,101344.31
2023-04-28T03:38:18.862Z,101346.28
2023-04-28T03:40:46.924Z,101351.53
2023-04-28T03:43:14.657Z,101346.28
2023-04-28T03:45:51.121Z,101347.41
2023-04-28T03:48:18.767Z,101338.13
2023-04-28T03:50:47.032Z,101345.06
2023-04-28T03:53:16.348Z,101342.34
2023-04-28T03:55:44.954Z,101347.50
2023-04-28T03:58:13.204Z,101345.88
2023-04-28T04:00:40.829Z,101347.56
2023-04-28T04:03:09.099Z,101352.81
2023-04-28T04:05:37.477Z,101343.84
2023-04-28T04:08:06.055Z,101347.19
2023-04-28T04:10:34.446Z,101355.91
2023-04-28T04:13:02.569Z,101352.91
2023-04-28T04:15:30.382Z,101353.06
2023-04-28T04:17:59.061Z,101347.31
2023-04-28T04:20:29.924Z,101353.31
2023-04-28T04:22:58.432Z,101354.63
2023-04-28T04:25:26.046Z,101368.06
2023-04-28T04:27:54.001Z,101372.53
2023-04-28T04:30:21.686Z,101370.50
2023-04-28T04:32:49.257Z,101370.97
2023-04-28T04:35:17.740Z,101365.72
2023-04-28T04:37:46.249Z,101371.84
2023-04-28T04:40:14.183Z,101373.44
2023-04-28T04:42:48.876Z,101366.66
2023-04-28T04:45:19.937Z,101366.81
2023-04-28T04:47:48.604Z,101357.81
2023-04-28T04:50:16.830Z,101364.00
2023-04-28T04:52:45.025Z,101351.53
2023-04-28T04:55:12.641Z,101355.03
2023-04-28T04:57:42.355Z,101355.47
2023-04-28T05:00:22.485Z,101361.91
2023-04-28T05:02:50.940Z,101357.56
2023-04-28T05:05:21.902Z,101366.06
2023-04-28T05:08:06.020Z,101372.09
2023-04-28T05:10:34.176Z,101363.94
2023-04-28T05:13:04.432Z,101362.06
2023-04-28T05:15:32.397Z,101362.94
2023-04-28T05:18:21.581Z,101370.66
2023-04-28T05:20:49.239Z,101374.53
2023-04-28T05:23:19.603Z,101375.06
2023-04-28T05:25:48.430Z,101379.81
2023-04-28T05:28:15.997Z,101384.34
2023-04-28T05:30:45.068Z,101396.56
2023-04-28T05:33:14.147Z,101395.09
2023-04-28T05:35:42.777Z,101387.59
2023-04-28T05:38:10.628Z,101386.75
2023-04-28T05:40:38.705Z,101384.31
2023-04-28T05:43:07.855Z,101398.13
2023-04-28T05:45:35.606Z,101397.53
2023-04-28T05:48:05.198Z,101398.22
2023-04-28T05:50:33.220Z,101396.22
2023-04-28T05:53:02.319Z,101388.47
2023-04-28T05:55:31.477Z,101383.88
2023-04-28T05:57:59.943Z,101384.09
2023-04-28T06:00:28.063Z,101375.34
2023-04-28T06:03:00.667Z,101384.25
2023-04-28T06:05:28.890Z,101383.28
2023-04-28T06:07:57.425Z,101393.28
2023-04-28T06:10:26.401Z,101405.53
2023-04-28T06:12:54.034Z,101402.03
2023-04-28T06:15:21.628Z,101416.59
2023-04-28T06:17:49.761Z,101419.25
2023-04-28T06:20:17.931Z,101411.44
2023-04-28T06:22:45.719Z,101408.88
2023-04-28T06:25:13.228Z,101411.97
2023-04-28T06:27:51.206Z,101407.28
2023-04-28T06:30:20.322Z,101400.44
2023-04-28T06:32:48.209Z,101398.06
2023-04-28T06:35:16.734Z,101388.56
2023-04-28T06:37:44.371Z,101393.78
2023-04-28T06:40:12.172Z,101393.91
2023-04-28T06:42:43.772Z,101406.03
2023-04-28T06:45:13.454Z,101409.13
2023-04-28T06:47:41.599Z,101410.69
2023-04-28T06:50:10.918Z,101415.38
2023-04-28T06:52:41.507Z,101415.09
2023-04-28T06:55:09.910Z,101417.25
2023-04-28T06:57:42.611Z,101421.69
2023-04-28T07:00:11.101Z,101416.03
2023-04-28T07:02:38.925Z,101409.56
2023-04-28T07:05:07.911Z,101403.53
2023-04-28T07:07:38.648Z,101402.00
2023-04-28T07:10:07.521Z,101390.44
2023-04-28T07:12:35.090Z,101392.38
2023-04-28T07:15:02.826Z,101394.72
2023-04-28T07:17:32.212Z,101397.28
2023-04-28T07:19:59.902Z,101390.50
2023-04-28T07:22:27.807Z,101396.25
2023-04-28T07:24:55.376Z,101398.63
2023-04-28T07:27:23.985Z,101401.03
2023-04-28T07:29:51.511Z,101402.16
2023-04-28T07:32:19.609Z,101401.19
2023-04-28T07:34:48.188Z,101395.16
2023-04-28T07:37:16.966Z,101387.31
2023-04-28T07:39:44.919Z,101399.44
2023-04-28T07:42:12.669Z,101395.88
2023-04-28T07:44:40.398Z,101395.75
2023-04-28T07:47:08.769Z,101396.28
2023-04-28T07:49:37.122Z,101390.03
2023-04-28T07:52:05.295Z,101390.94
2023-04-28T07:54:33.208Z,101394.16
2023-04-28T07:57:06.074Z,101388.31
2023-04-28T07:59:34.658Z,101382.44
2023-04-28T08:02:02.910Z,101388.03
2023-04-28T08:04:32.382Z,101392.84
2023-04-28T08:07:00.820Z,101387.94
2023-04-28T08:09:28.458Z,101395.25
2023-04-28T08:11:56.390Z,101397.13
2023-04-28T08:14:23.887Z,101394.34
2023-04-28T08:16:52.476Z,101399.22
2023-04-28T08:19:20.595Z,101396.94
2023-04-28T08:21:49.082Z,101390.63
2023-04-28T08:24:17.012Z,101392.81
2023-04-28T08:26:45.641Z,101378.44
2023-04-28T08:29:13.263Z,101389.91
2023-04-28T08:31:41.337Z,101380.53
2023-04-28T08:34:09.366Z,101375.53
2023-04-28T08:36:36.933Z,101378.06
2023-04-28T08:39:08.435Z,101370.19
2023-04-28T08:41:38.761Z,101374.63
2023-04-28T08:44:11.799Z,101366.28
2023-04-28T08:46:44.758Z,101356.66
2023-04-28T08:49:16.942Z,101362.72
2023-04-28T08:51:55.950Z,101361.94
2023-04-28T08:54:27.271Z,101362.97
2023-04-28T08:56:57.132Z,101367.06
2023-04-28T08:59:25.369Z,101359.19
2023-04-28T09:01:53.072Z,101369.38
2023-04-28T09:04:22.170Z,101361.97
2023-04-28T09:06:50.039Z,101361.53
2023-04-28T09:09:21.833Z,101360.44
2023-04-28T09:11:56.081Z,101360.53
2023-04-28T09:14:24.544Z,101362.06
2023-04-28T09:16:53.197Z,101364.88
2023-04-28T09:19:21.616Z,101368.28
2023-04-28T09:21:51.949Z,101357.47
2023-04-28T09:24:26.683Z,101362.47
2023-04-28T09:26:55.789Z,101350.38
2023-04-28T09:29:24.416Z,101352.34
2023-04-28T09:31:53.492Z,101351.91
2023-04-28T09:34:22.404Z,101354.03
2023-04-28T09:36:50.067Z,101349.75
2023-04-28T09:39:29.280Z,101369.31
2023-04-28T09:41:57.392Z,101371.13
2023-04-28T09:44:24.956Z,101376.78
2023-04-28T09:46:53.601Z,101371.44
2023-04-28T09:49:21.838Z,101363.09
2023-04-28T09:51:50.353Z,101346.38
2023-04-28T09:54:22.856Z,101353.38
2023-04-28T09:56:51.614Z,101354.69
2023-04-28T09:59:19.638Z,101349.59
2023-04-28T10:01:47.990Z,101344.53
2023-04-28T10:04:17.131Z,101341.50
2023-04-28T10:06:44.949Z,101333.91
2023-04-28T10:09:14.114Z,101330.91
2023-04-28T10:11:43.533Z,101316.31
2023-04-28T10:14:12.047Z,101318.66
2023-04-28T10:16:40.791Z,101308.63
2023-04-28T10:19:09.627Z,101313.53
2023-04-28T10:21:47.000Z,101316.03
2023-04-28T10:24:23.200Z,101299.66
2023-04-28T10:27:09.674Z,101294.31
2023-04-28T10:29:38.128Z,101283.59
2023-04-28T10:32:16.548Z,101282.88
2023-04-28T10:34:44.853Z,101276.28
2023-04-28T10:37:15.251Z,101280.50
2023-04-28T10:40:23.418Z,101286.91
2023-04-28T10:42:56.931Z,101271.66
2023-04-28T10:45:49.454Z,101265.94
2023-04-28T10:48:21.608Z,101257.94
2023-04-28T10:51:04.846Z,101258.31
2023-04-28T10:53:52.049Z,101249.69
2023-04-28T10:56:26.865Z,101251.41
2023-04-28T10:58:55.718Z,101263.19
2023-04-28T11:01:35.534Z,101254.41
2023-04-28T11:04:17.029Z,101257.09
2023-04-28T11:06:47.095Z,101252.84
2023-04-28T11:09:15.860Z,101256.56
2023-04-28T11:12:02.240Z,101258.69
2023-04-28T11:14:32.648Z,101254.72
2023-04-28T11:17:08.529Z,101259.75
2023-04-28T11:19:39.187Z,101258.50
2023-04-28T11:22:11.725Z,101263.81
2023-04-28T11:24:39.611Z,101259.31
2023-04-28T11:27:07.285Z,101254.94
2023-04-28T11:29:40.327Z,101254.34
2023-04-28T11:32:10.389Z,101250.41
2023-04-28T11:34:38.639Z,101242.63
2023-04-28T11:37:08.392Z,101239.13
2023-04-28T11:39:37.282Z,101242.97
2023-04-28T11:42:11.883Z,101240.38
2023-04-28T11:44:40.670Z,101241.69
2023-04-28T11:47:08.904Z,101230.50
2023-04-28T11:49:42.715Z,101228.69
2023-04-28T11:52:11.462Z,101234.44
2023-04-28T11:54:39.040Z,101220.53
2023-04-28T11:57:07.389Z,101219.66
2023-04-28T11:59:36.902Z,101216.13
2023-04-28T12:02:07.445Z,101207.78
2023-04-28T12:04:36.549Z,101202.06
2023-04-28T12:07:07.229Z,101211.28
2023-04-28T12:09:35.648Z,101203.31
2023-04-28T12:12:06.017Z,101203.31
2023-04-28T12:14:57.198Z,101191.31
2023-04-28T12:17:26.675Z,101181.00
2023-04-28T12:19:56.219Z,101183.00
2023-04-28T12:22:25.185Z,101184.50
2023-04-28T12:25:08.079Z,101185.38
2023-04-28T12:27:40.803Z,101179.22
2023-04-28T12:30:21.091Z,101172.81
2023-04-28T12:32:49.040Z,101167.47
2023-04-28T12:35:17.269Z,101171.22
2023-04-28T12:37:45.287Z,101169.06
2023-04-28T12:40:14.656Z,101165.03
2023-04-28T12:42:42.458Z,101155.41
2023-04-28T12:45:10.702Z,101151.75
2023-04-28T12:47:42.319Z,101151.28
2023-04-28T12:50:10.380Z,101153.28
2023-04-28T12:52:38.131Z,101153.91
2023-04-28T12:55:06.618Z,101150.25
2023-04-28T12:57:39.032Z,101145.19
2023-04-28T13:00:08.605Z,101130.97
2023-04-28T13:02:36.974Z,101132.78
2023-04-28T13:05:05.237Z,101132.38
2023-04-28T13:07:34.286Z,101123.16
2023-04-28T13:10:02.444Z,101114.41
2023-04-28T13:12:29.989Z,101110.97
2023-04-28T13:14:57.539Z,101103.72
2023-04-28T13:17:25.324Z,101112.78
2023-04-28T13:19:53.353Z,101110.50
2023-04-28T13:22:21.828Z,101098.69
2023-04-28T13:24:49.970Z,101098.59
2023-04-28T13:27:17.582Z,101095.16
2023-04-28T13:29:45.429Z,101090.94
2023-04-28T13:32:13.119Z,101079.53
2023-04-28T13:34:40.776Z,101083.09
2023-04-28T13:37:08.329Z,101088.78
2023-04-28T13:39:35.972Z,101090.78
2023-04-28T13:42:05.496Z,101082.97
2023-04-28T13:44:32.995Z,101076.28
2023-04-28T13:47:00.980Z,101079.06
2023-04-28T13:49:28.894Z,101067.97
2023-04-28T13:51:57.540Z,101062.53
2023-04-28T13:54:25.775Z,101062.03
2023-04-28T13:56:53.756Z,101058.94
2023-04-28T13:59:21.476Z,101049.03
2023-04-28T14:01:48.960Z,101037.91
2023-04-28T14:04:17.927Z,101039.03
2023-04-28T14:06:46.004Z,101039.16
2023-04-28T14:09:13.573Z,101023.41
2023-04-28T14:11:41.275Z,101024.63
2023-04-28T14:14:08.707Z,101029.00
2023-04-28T14:16:36.987Z,101023.31
2023-04-28T14:19:04.525Z,101022.66
2023-04-28T14:21:33.180Z,101012.06
2023-04-28T14:24:00.703Z,101012.88
2023-04-28T14:26:29.042Z,101017.09
2023-04-28T14:28:56.677Z,101013.66
2023-04-28T14:31:24.976Z,101005.16
2023-04-28T14:33:52.479Z,100989.56
2023-04-28T14:36:20.701Z,100993.09
2023-04-28T14:38:48.206Z,100993.88
2023-04-28T14:41:15.940Z,100992.03
2023-04-28T14:43:43.691Z,100987.00
2023-04-28T14:46:11.937Z,100985.75
2023-04-28T14:48:40.127Z,100986.84
2023-04-28T14:51:08.144Z,100988.16
2023-04-28T14:53:35.870Z,100990.41
2023-04-28T14:56:17.791Z,100978.88
2023-04-28T14:58:47.424Z,100981.13
2023-04-28T15:01:15.044Z,100978.28
2023-04-28T15:03:44.023Z,100971.66
2023-04-28T15:06:12.138Z,100983.16
2023-04-28T15:08:41.153Z,100979.31
2023-04-28T15:11:08.792Z,100976.91
2023-04-28T15:13:36.699Z,100983.25
2023-04-28T15:16:06.163Z,100977.41
2023-04-28T15:18:33.924Z,100975.78
2023-04-28T15:21:01.927Z,100977.31
2023-04-28T15:23:29.486Z,100980.41
2023-04-28T15:25:56.976Z,100975.22
2023-04-28T15:28:25.066Z,100970.75
2023-04-28T15:30:52.688Z,100966.22
2023-04-28T15:33:20.152Z,100962.34
2023-04-28T15:35:47.888Z,100950.28
2023-04-28T15:38:16.691Z,100945.69
2023-04-28T15:40:44.447Z,100945.41
2023-04-28T15:43:13.406Z,100954.84
2023-04-28T15:45:41.097Z,100946.25
2023-04-28T15:48:10.151Z,100953.88
2023-04-28T15:50:37.825Z,100944.84
2023-04-28T15:53:05.895Z,100945.06
2023-04-28T15:55:33.489Z,100939.91
2023-04-28T15:58:01.343Z,100940.69
2023-04-28T16:00:29.874Z,100938.28
2023-04-28T16:02:58.124Z,100943.41
2023-04-28T16:05:27.324Z,100939.84
2023-04-28T16:07:55.290Z,100923.69
2023-04-28T16:10:23.874Z,100939.03
2023-04-28T16:12:51.879Z,100944.72
2023-04-28T16:15:19.742Z,100938.56
2023-04-28T16:17:49.191Z,100939.78
2023-04-28T16:20:17.447Z,100923.75
2023-04-28T16:22:46.545Z,100928.75
2023-04-28T16:25:14.163Z,100929.09
2023-04-28T16:27:41.856Z,100922.75
2023-04-28T16:30:10.106Z,100919.63
2023-04-28T16:32:38.557Z,100921.66
2023-04-28T16:35:12.369Z,100924.19
2023-04-28T16:37:41.608Z,100927.22
2023-04-28T16:40:10.891Z,100928.38
2023-04-28T16:42:39.704Z,100910.84
2023-04-28T16:45:08.336Z,100914.09
2023-04-28T16:47:36.436Z,100914.44
2023-04-28T16:50:04.219Z,100910.69
2023-04-28T16:52:33.151Z,100913.97
2023-04-28T16:55:00.921Z,100911.19
2023-04-28T16:57:28.921Z,100907.47
2023-04-28T16:59:56.568Z,100907.06
2023-04-28T17:02:24.636Z,100907.94
2023-04-28T17:04:52.326Z,100902.28
2023-04-28T17:07:20.383Z,100905.03
2023-04-28T17:09:48.069Z,100909.25
2023-04-28T17:12:16.746Z,100918.59
2023-04-28T17:14:44.421Z,100917.88
2023-04-28T17:17:12.387Z,100925.72
2023-04-28T17:19:41.679Z,100919.09
2023-04-28T17:22:09.954Z,100903.06
2023-04-28T17:24:37.597Z,100912.34
2023-04-28T17:27:05.965Z,100904.63
2023-04-28T17:29:34.050Z,100918.88
2023-04-28T17:32:01.577Z,100912.16
2023-04-28T17:34:29.556Z,100922.41
2023-04-28T17:36:57.509Z,100914.88
2023-04-28T17:39:25.113Z,100921.44
2023-04-28T17:41:53.315Z,100919.53
2023-04-28T17:44:21.104Z,100921.69
2023-04-28T17:46:48.981Z,100922.13
2023-04-28T17:49:16.897Z,100921.22
2023-04-28T17:51:44.516Z,100923.31
2023-04-28T17:54:12.222Z,100913.84
2023-04-28T17:56:40.161Z,100927.16
2023-04-28T17:59:08.940Z,100922.22
2023-04-28T18:01:36.947Z,100918.66
2023-04-28T18:04:04.674Z,100922.47
2023-04-28T18:06:32.703Z,100922.16
2023-04-28T18:09:00.647Z,100913.69
2023-04-28T18:11:28.191Z,100921.00
2023-04-28T18:13:56.060Z,100920.50
2023-04-28T18:16:23.662Z,100923.84
2023-04-28T18:18:52.419Z,100912.50
2023-04-28T18:21:20.046Z,100914.16
2023-04-28T18:23:47.698Z,100901.34
2023-04-28T18:26:15.411Z,100915.84
2023-04-28T18:28:46.422Z,100916.16
2023-04-28T18:31:14.693Z,100906.16
2023-04-28T18:33:42.438Z,100905.84
2023-04-28T18:36:10.496Z,100910.09
2023-04-28T18:38:38.080Z,100928.28
2023-04-28T18:41:18.636Z,100935.22
2023-04-28T18:43:46.546Z,100941.09
2023-04-28T18:46:14.726Z,100943.72
2023-04-28T18:48:43.380Z,100938.59
2023-04-28T18:51:11.430Z,100939.34
2023-04-28T18:53:38.995Z,100953.91
2023-04-28T18:56:06.754Z,100950.31
2023-04-28T18:58:37.264Z,100947.34
2023-04-28T19:01:05.759Z,100948.66
2023-04-28T19:03:33.593Z,100959.84
2023-04-28T19:06:01.881Z,100964.50
2023-04-28T19:08:29.996Z,100968.84
2023-04-28T19:10:58.572Z,100964.94
2023-04-28T19:13:26.338Z,100961.09
2023-04-28T19:15:56.486Z,100964.50
2023-04-28T19:18:24.259Z,100976.75
2023-04-28T19:21:04.953Z,100971.44
2023-04-28T19:23:33.827Z,100971.38
2023-04-28T19:26:01.942Z,100978.34
2023-04-28T19:28:29.963Z,100991.50
2023-04-28T19:30:59.354Z,100981.28
2023-04-28T19:33:28.417Z,100991.03
2023-04-28T19:35:57.150Z,100986.00
2023-04-28T19:38:24.909Z,100988.47
2023-04-28T19:41:03.325Z,101000.34
2023-04-28T19:43:31.691Z,101000.31
2023-04-28T19:46:00.170Z,101003.09
2023-04-28T19:48:27.934Z,101003.44
2023-04-28T19:50:55.601Z,101010.69
2023-04-28T19:53:23.629Z,101007.91
2023-04-28T19:55:51.629Z,101014.59
2023-04-28T19:58:19.268Z,101010.44
2023-04-28T20:00:47.972Z,101019.25
2023-04-28T20:03:17.145Z,101018.53
2023-04-28T20:05:46.122Z,101020.84
2023-04-28T20:08:13.821Z,101016.94
2023-04-28T20:10:41.446Z,101009.72
2023-04-28T20:13:09.216Z,101015.28
2023-04-28T20:15:37.851Z,101010.28
2023-04-28T20:18:05.984Z,101002.47
2023-04-28T20:20:34.339Z,101003.31
2023-04-28T20:23:02.305Z,101011.22
2023-04-28T20:25:30.047Z,101009.13
2023-04-28T20:27:58.121Z,100996.59
2023-04-28T20:30:26.792Z,100991.00
2023-04-28T20:32:54.394Z,100998.25
2023-04-28T20:35:23.058Z,100993.94
2023-04-28T20:37:50.878Z,100991.13
2023-04-28T20:40:18.701Z,100997.88
2023-04-28T20:42:46.693Z,100989.63
2023-04-28T20:45:15.225Z,100988.75
2023-04-28T20:47:43.094Z,100994.06
2023-04-28T20:50:11.994Z,100992.84
2023-04-28T20:52:39.539Z,100991.41
2023-04-28T20:55:09.648Z,100996.59
2023-04-28T20:57:37.735Z,100986.41
2023-04-28T21:00:07.052Z,100994.88
2023-04-28T21:02:34.858Z,100986.78
2023-04-28T21:05:02.624Z,100985.28
2023-04-28T21:07:30.632Z,100987.13
2023-04-28T21:09:58.201Z,100981.13
2023-04-28T21:12:25.854Z,100982.63
2023-04-28T21:14:53.621Z,100979.13
2023-04-28T21:17:21.269Z,100977.31
2023-04-28T21:19:49.029Z,100988.31
2023-04-28T21:22:16.836Z,100990.28
2023-04-28T21:24:44.982Z,100983.56
2023-04-28T21:27:12.551Z,100986.34
2023-04-28T21:29:40.874Z,100982.28
2023-04-28T21:32:09.155Z,100979.72
2023-04-28T21:34:37.231Z,100976.69
2023-04-28T21:37:05.169Z,100988.63
2023-04-28T21:39:32.714Z,100986.53
2023-04-28T21:42:00.421Z,100984.34
2023-04-28T21:44:28.473Z,100969.31
2023-04-28T21:46:56.019Z,100962.75
2023-04-28T21:49:23.695Z,100970.16
2023-04-28T21:51:51.341Z,100979.22
2023-04-28T21:54:20.593Z,100981.19
2023-04-28T21:56:48.234Z,100982.28
2023-04-28T21:59:18.003Z,100990.81
2023-04-28T22:01:46.044Z,101001.28
2023-04-28T22:04:13.947Z,101009.22
2023-04-28T22:06:42.162Z,101009.56
2023-04-28T22:09:09.783Z,100991.13
2023-04-28T22:11:37.910Z,100989.44
2023-04-28T22:14:06.095Z,100979.16
2023-04-28T22:16:33.767Z,100992.31
2023-04-28T22:19:02.329Z,101006.09
2023-04-28T22:21:32.214Z,101002.41
2023-04-28T22:24:00.297Z,101002.75
2023-04-28T22:26:30.497Z,100996.47
2023-04-28T22:28:58.690Z,101007.34
2023-04-28T22:31:26.278Z,100997.63
2023-04-28T22:33:54.019Z,101000.97
2023-04-28T22:36:22.001Z,101004.81
2023-04-28T22:38:49.526Z,101012.38
2023-04-28T22:41:17.543Z,100998.88
2023-04-28T22:43:45.466Z,101010.91
2023-04-28T22:46:13.055Z,100999.31
2023-04-28T22:48:40.667Z,100996.19
2023-04-28T22:51:09.192Z,100981.75
2023-04-28T22:53:37.161Z,100982.00
2023-04-28T22:56:04.902Z,100979.09
2023-04-28T22:58:32.844Z,100980.59
2023-04-28T23:01:04.165Z,100969.66
2023-04-28T23:03:32.037Z,100970.13
2023-04-28T23:06:00.386Z,100961.88
2023-04-28T23:08:27.949Z,100967.63
2023-04-28T23:10:56.995Z,100961.88
2023-04-28T23:13:25.510Z,100959.06
2023-04-28T23:15:53.664Z,100972.47
2023-04-28T23:18:21.366Z,100973.28
2023-04-28T23:20:50.136Z,100968.28
2023-04-28T23:23:17.930Z,100977.19
2023-04-28T23:25:45.433Z,100981.78
2023-04-28T23:28:13.390Z,100972.75
2023-04-28T23:30:40.917Z,100968.31
2023-04-28T23:33:08.581Z,100957.28
2023-04-28T23:35:36.545Z,100971.84
2023-04-28T23:38:04.208Z,100972.31
2023-04-28T23:40:32.549Z,100961.72
2023-04-28T23:43:00.547Z,100959.69
2023-04-28T23:45:27.998Z,100948.81
2023-04-28T23:47:55.688Z,100957.84
2023-04-28T23:50:23.986Z,100956.72
2023-04-28T23:52:52.076Z,100942.97
2023-04-28T23:55:19.880Z,100934.78
2023-04-28T23:57:47.390Z,100922.28
